sensor_id;sensor_type;location;lat;lon;timestamp;temperature;humidity
32446;DHT22;18899;50.748;7.102;2023-04-05T00:01:08;4.00;99.90
32446;DHT22;18899;50.748;7.102;2023-04-05T00:03:36;4.00;99.90
32446;DHT22;18899;50.748;7.102;2023-04-05T00:06:02;4.00;99.90
32446;DHT22;18899;50.748;7.102;2023-04-05T00:08:29;4.00;99.90
32446;DHT22;18899;50.748;7.102;2023-04-05T00:10:55;4.00;99.90
32446;DHT22;18899;50.748;7.102;2023-04-05T00:13:22;4.00;99.90
32446;DHT22;18899;50.748;7.102;2023-04-05T00:15:48;4.00;99.90
32446;DHT22;18899;50.748;7.102;2023-04-05T00:18:14;4.10;99.90
32446;DHT22;18899;50.748;7.102;2023-04-05T00:20:52;4.10;99.90
32446;DHT22;18899;50.748;7.102;2023-04-05T00:23:18;4.00;99.90
32446;DHT22;18899;50.748;7.102;2023-04-05T00:25:45;4.10;99.90
32446;DHT22;18899;50.748;7.102;2023-04-05T00:28:11;4.20;99.90
32446;DHT22;18899;50.748;7.102;2023-04-05T00:30:37;4.60;99.90
32446;DHT22;18899;50.748;7.102;2023-04-05T00:33:03;4.50;99.90
32446;DHT22;18899;50.748;7.102;2023-04-05T00:35:29;4.50;99.90
32446;DHT22;18899;50.748;7.102;2023-04-05T00:37:55;4.40;99.90
32446;DHT22;18899;50.748;7.102;2023-04-05T00:40:21;4.40;99.90
32446;DHT22;18899;50.748;7.102;2023-04-05T00:42:47;4.40;99.90
32446;DHT22;18899;50.748;7.102;2023-04-05T00:45:13;4.20;99.90
32446;DHT22;18899;50.748;7.102;2023-04-05T00:47:40;4.30;99.90
32446;DHT22;18899;50.748;7.102;2023-04-05T00:50:08;4.20;99.90
32446;DHT22;18899;50.748;7.102;2023-04-05T00:52:34;4.20;99.90
32446;DHT22;18899;50.748;7.102;2023-04-05T00:55:05;4.10;99.90
32446;DHT22;18899;50.748;7.102;2023-04-05T00:57:32;4.10;99.90
32446;DHT22;18899;50.748;7.102;2023-04-05T00:59:59;4.10;99.90
32446;DHT22;18899;50.748;7.102;2023-04-05T01:02:32;4.10;99.90
32446;DHT22;18899;50.748;7.102;2023-04-05T01:05:03;4.10;99.90
32446;DHT22;18899;50.748;7.102;2023-04-05T01:07:43;4.20;99.90
32446;DHT22;18899;50.748;7.102;2023-04-05T01:12:37;4.20;99.90
32446;DHT22;18899;50.748;7.102;2023-04-05T01:15:03;4.10;99.90
32446;DHT22;18899;50.748;7.102;2023-04-05T01:17:30;4.10;99.90
32446;DHT22;18899;50.748;7.102;2023-04-05T01:20:04;4.00;99.90
32446;DHT22;18899;50.748;7.102;2023-04-05T01:23:09;4.00;99.90
32446;DHT22;18899;50.748;7.102;2023-04-05T01:34:26;4.10;99.90
32446;DHT22;18899;50.748;7.102;2023-04-05T01:36:57;4.00;99.90
32446;DHT22;18899;50.748;7.102;2023-04-05T01:39:25;4.00;99.90
32446;DHT22;18899;50.748;7.102;2023-04-05T01:41:51;3.90;99.90
32446;DHT22;18899;50.748;7.102;2023-04-05T01:44:22;3.90;99.90
32446;DHT22;18899;50.748;7.102;2023-04-05T01:46:47;3.90;99.90
32446;DHT22;18899;50.748;7.102;2023-04-05T01:49:13;3.90;99.90
32446;DHT22;18899;50.748;7.102;2023-04-05T01:51:38;4.00;99.90
32446;DHT22;18899;50.748;7.102;2023-04-05T01:54:06;4.20;99.90
32446;DHT22;18899;50.748;7.102;2023-04-05T01:56:32;4.50;99.90
32446;DHT22;18899;50.748;7.102;2023-04-05T01:58:57;4.50;99.90
32446;DHT22;18899;50.748;7.102;2023-04-05T02:01:23;4.30;99.90
32446;DHT22;18899;50.748;7.102;2023-04-05T02:03:49;4.20;99.90
32446;DHT22;18899;50.748;7.102;2023-04-05T02:06:14;4.30;99.90
32446;DHT22;18899;50.748;7.102;2023-04-05T02:08:40;4.40;99.90
32446;DHT22;18899;50.748;7.102;2023-04-05T02:11:06;4.50;99.90
32446;DHT22;18899;50.748;7.102;2023-04-05T02:13:31;4.20;99.90
32446;DHT22;18899;50.748;7.102;2023-04-05T02:15:57;4.10;99.90
32446;DHT22;18899;50.748;7.102;2023-04-05T02:18:22;3.90;99.90
32446;DHT22;18899;50.748;7.102;2023-04-05T02:21:03;3.70;99.90
32446;DHT22;18899;50.748;7.102;2023-04-05T02:23:30;3.60;99.90
32446;DHT22;18899;50.748;7.102;2023-04-05T02:25:57;3.60;99.90
32446;DHT22;18899;50.748;7.102;2023-04-05T02:28:22;3.60;99.90
32446;DHT22;18899;50.748;7.102;2023-04-05T02:30:48;3.60;99.90
32446;DHT22;18899;50.748;7.102;2023-04-05T02:33:14;3.60;99.90
32446;DHT22;18899;50.748;7.102;2023-04-05T02:35:39;3.50;99.90
32446;DHT22;18899;50.748;7.102;2023-04-05T02:38:05;3.60;99.90
32446;DHT22;18899;50.748;7.102;2023-04-05T02:40:31;3.80;99.90
32446;DHT22;18899;50.748;7.102;2023-04-05T02:42:57;3.90;99.90
32446;DHT22;18899;50.748;7.102;2023-04-05T02:45:22;3.80;99.90
32446;DHT22;18899;50.748;7.102;2023-04-05T02:47:48;3.60;99.90
32446;DHT22;18899;50.748;7.102;2023-04-05T02:50:14;3.70;99.90
32446;DHT22;18899;50.748;7.102;2023-04-05T02:52:47;3.60;99.90
32446;DHT22;18899;50.748;7.102;2023-04-05T02:55:13;3.50;99.90
32446;DHT22;18899;50.748;7.102;2023-04-05T02:57:38;3.30;99.90
32446;DHT22;18899;50.748;7.102;2023-04-05T03:00:04;3.30;99.90
32446;DHT22;18899;50.748;7.102;2023-04-05T03:02:32;3.40;99.90
32446;DHT22;18899;50.748;7.102;2023-04-05T03:04:58;3.40;99.90
32446;DHT22;18899;50.748;7.102;2023-04-05T03:07:26;3.50;99.90
32446;DHT22;18899;50.748;7.102;2023-04-05T03:09:52;3.30;99.90
32446;DHT22;18899;50.748;7.102;2023-04-05T03:12:18;3.20;99.90
32446;DHT22;18899;50.748;7.102;2023-04-05T03:14:43;3.10;99.90
32446;DHT22;18899;50.748;7.102;2023-04-05T03:17:11;3.20;99.90
32446;DHT22;18899;50.748;7.102;2023-04-05T03:19:36;3.50;99.90
32446;DHT22;18899;50.748;7.102;2023-04-05T03:22:03;3.80;99.90
32446;DHT22;18899;50.748;7.102;2023-04-05T03:24:28;3.80;99.90
32446;DHT22;18899;50.748;7.102;2023-04-05T03:26:55;3.50;99.90
32446;DHT22;18899;50.748;7.102;2023-04-05T03:29:20;3.30;99.90
32446;DHT22;18899;50.748;7.102;2023-04-05T03:31:46;3.20;99.90
32446;DHT22;18899;50.748;7.102;2023-04-05T03:34:11;3.30;99.90
32446;DHT22;18899;50.748;7.102;2023-04-05T03:36:37;3.10;99.90
32446;DHT22;18899;50.748;7.102;2023-04-05T03:39:11;2.90;99.90
32446;DHT22;18899;50.748;7.102;2023-04-05T03:41:37;2.80;99.90
32446;DHT22;18899;50.748;7.102;2023-04-05T03:44:03;2.70;99.90
32446;DHT22;18899;50.748;7.102;2023-04-05T03:46:29;2.70;99.90
32446;DHT22;18899;50.748;7.102;2023-04-05T03:48:55;2.70;99.90
32446;DHT22;18899;50.748;7.102;2023-04-05T03:51:21;2.90;99.90
32446;DHT22;18899;50.748;7.102;2023-04-05T03:53:47;2.80;99.90
32446;DHT22;18899;50.748;7.102;2023-04-05T03:56:12;2.70;99.90
32446;DHT22;18899;50.748;7.102;2023-04-05T03:58:38;2.60;99.90
32446;DHT22;18899;50.748;7.102;2023-04-05T04:01:03;2.50;99.90
32446;DHT22;18899;50.748;7.102;2023-04-05T04:03:29;2.40;99.90
32446;DHT22;18899;50.748;7.102;2023-04-05T04:05:55;2.30;99.90
32446;DHT22;18899;50.748;7.102;2023-04-05T04:08:22;2.40;99.90
32446;DHT22;18899;50.748;7.102;2023-04-05T04:10:48;2.60;99.90
32446;DHT22;18899;50.748;7.102;2023-04-05T04:13:13;2.60;99.90
32446;DHT22;18899;50.748;7.102;2023-04-05T04:15:39;2.50;99.90
32446;DHT22;18899;50.748;7.102;2023-04-05T04:18:05;2.40;99.90
32446;DHT22;18899;50.748;7.102;2023-04-05T04:20:31;2.80;99.90
32446;DHT22;18899;50.748;7.102;2023-04-05T04:22:57;3.00;99.90
32446;DHT22;18899;50.748;7.102;2023-04-05T04:25:23;2.90;99.90
32446;DHT22;18899;50.748;7.102;2023-04-05T04:27:51;2.70;99.90
32446;DHT22;18899;50.748;7.102;2023-04-05T04:30:17;2.80;99.90
32446;DHT22;18899;50.748;7.102;2023-04-05T04:32:42;2.80;99.90
32446;DHT22;18899;50.748;7.102;2023-04-05T04:35:25;2.70;99.90
32446;DHT22;18899;50.748;7.102;2023-04-05T04:38:01;2.40;99.90
32446;DHT22;18899;50.748;7.102;2023-04-05T04:40:28;2.30;99.90
32446;DHT22;18899;50.748;7.102;2023-04-05T04:42:56;2.50;99.90
32446;DHT22;18899;50.748;7.102;2023-04-05T04:45:23;2.40;99.90
32446;DHT22;18899;50.748;7.102;2023-04-05T04:47:49;2.20;99.90
32446;DHT22;18899;50.748;7.102;2023-04-05T04:50:18;2.40;99.90
32446;DHT22;18899;50.748;7.102;2023-04-05T04:52:45;2.40;99.90
32446;DHT22;18899;50.748;7.102;2023-04-05T04:55:11;2.30;99.90
32446;DHT22;18899;50.748;7.102;2023-04-05T04:57:41;2.20;99.90
32446;DHT22;18899;50.748;7.102;2023-04-05T05:00:10;2.10;99.90
32446;DHT22;18899;50.748;7.102;2023-04-05T05:02:41;2.00;99.90
32446;DHT22;18899;50.748;7.102;2023-04-05T05:05:08;1.90;99.90
32446;DHT22;18899;50.748;7.102;2023-04-05T05:07:35;2.00;99.90
32446;DHT22;18899;50.748;7.102;2023-04-05T05:10:02;1.90;99.90
32446;DHT22;18899;50.748;7.102;2023-04-05T05:12:28;2.10;99.90
32446;DHT22;18899;50.748;7.102;2023-04-05T05:14:56;2.20;99.90
32446;DHT22;18899;50.748;7.102;2023-04-05T05:17:21;2.50;99.90
32446;DHT22;18899;50.748;7.102;2023-04-05T05:19:47;2.80;99.90
32446;DHT22;18899;50.748;7.102;2023-04-05T05:22:13;2.90;99.90
32446;DHT22;18899;50.748;7.102;2023-04-05T05:24:39;3.00;99.90
32446;DHT22;18899;50.748;7.102;2023-04-05T05:27:04;3.20;99.90
32446;DHT22;18899;50.748;7.102;2023-04-05T05:29:30;3.50;99.90
32446;DHT22;18899;50.748;7.102;2023-04-05T05:31:56;3.40;99.90
32446;DHT22;18899;50.748;7.102;2023-04-05T05:34:22;3.60;99.90
32446;DHT22;18899;50.748;7.102;2023-04-05T05:36:48;3.70;99.90
32446;DHT22;18899;50.748;7.102;2023-04-05T05:39:13;3.60;99.90
32446;DHT22;18899;50.748;7.102;2023-04-05T05:41:39;3.50;99.90
32446;DHT22;18899;50.748;7.102;2023-04-05T05:44:05;3.50;99.90
32446;DHT22;18899;50.748;7.102;2023-04-05T05:46:31;3.60;99.90
32446;DHT22;18899;50.748;7.102;2023-04-05T05:48:56;3.80;99.90
32446;DHT22;18899;50.748;7.102;2023-04-05T05:51:22;4.00;99.90
32446;DHT22;18899;50.748;7.102;2023-04-05T05:53:47;4.60;99.90
32446;DHT22;18899;50.748;7.102;2023-04-05T05:56:13;5.00;99.90
32446;DHT22;18899;50.748;7.102;2023-04-05T05:58:38;5.40;99.90
32446;DHT22;18899;50.748;7.102;2023-04-05T06:01:05;5.60;99.90
32446;DHT22;18899;50.748;7.102;2023-04-05T06:03:32;5.90;99.90
32446;DHT22;18899;50.748;7.102;2023-04-05T06:05:58;6.20;99.90
32446;DHT22;18899;50.748;7.102;2023-04-05T06:08:25;6.50;99.90
32446;DHT22;18899;50.748;7.102;2023-04-05T06:10:52;6.40;99.90
32446;DHT22;18899;50.748;7.102;2023-04-05T06:13:18;6.30;99.90
32446;DHT22;18899;50.748;7.102;2023-04-05T06:15:45;6.40;99.90
32446;DHT22;18899;50.748;7.102;2023-04-05T06:18:11;6.40;99.90
32446;DHT22;18899;50.748;7.102;2023-04-05T06:20:37;6.50;99.90
32446;DHT22;18899;50.748;7.102;2023-04-05T06:23:06;6.40;99.90
32446;DHT22;18899;50.748;7.102;2023-04-05T06:25:32;6.40;99.90
32446;DHT22;18899;50.748;7.102;2023-04-05T06:27:57;7.00;99.90
32446;DHT22;18899;50.748;7.102;2023-04-05T06:30:23;7.20;99.90
32446;DHT22;18899;50.748;7.102;2023-04-05T06:32:48;7.30;99.90
32446;DHT22;18899;50.748;7.102;2023-04-05T06:35:19;7.50;99.90
32446;DHT22;18899;50.748;7.102;2023-04-05T06:37:44;7.70;99.90
32446;DHT22;18899;50.748;7.102;2023-04-05T06:40:10;8.10;99.90
32446;DHT22;18899;50.748;7.102;2023-04-05T06:42:36;8.60;99.90
32446;DHT22;18899;50.748;7.102;2023-04-05T06:45:02;9.30;98.10
32446;DHT22;18899;50.748;7.102;2023-04-05T06:47:31;10.20;91.00
32446;DHT22;18899;50.748;7.102;2023-04-05T06:49:57;11.10;83.00
32446;DHT22;18899;50.748;7.102;2023-04-05T06:52:22;11.80;78.40
32446;DHT22;18899;50.748;7.102;2023-04-05T06:54:48;11.60;76.60
32446;DHT22;18899;50.748;7.102;2023-04-05T06:57:13;12.60;70.60
32446;DHT22;18899;50.748;7.102;2023-04-05T06:59:39;13.20;66.60
32446;DHT22;18899;50.748;7.102;2023-04-05T07:02:05;14.00;63.00
32446;DHT22;18899;50.748;7.102;2023-04-05T07:04:30;14.20;60.70
32446;DHT22;18899;50.748;7.102;2023-04-05T07:07:01;14.30;59.70
32446;DHT22;18899;50.748;7.102;2023-04-05T07:09:27;14.80;58.20
32446;DHT22;18899;50.748;7.102;2023-04-05T07:11:55;15.00;56.10
32446;DHT22;18899;50.748;7.102;2023-04-05T07:14:21;15.40;56.40
32446;DHT22;18899;50.748;7.102;2023-04-05T07:16:47;15.10;56.40
32446;DHT22;18899;50.748;7.102;2023-04-05T07:19:13;15.10;56.20
32446;DHT22;18899;50.748;7.102;2023-04-05T07:21:38;14.80;55.60
32446;DHT22;18899;50.748;7.102;2023-04-05T07:24:04;15.10;54.10
32446;DHT22;18899;50.748;7.102;2023-04-05T07:26:30;15.50;53.60
32446;DHT22;18899;50.748;7.102;2023-04-05T07:29:00;16.60;51.70
32446;DHT22;18899;50.748;7.102;2023-04-05T07:31:26;16.40;51.20
32446;DHT22;18899;50.748;7.102;2023-04-05T07:33:52;16.30;52.10
32446;DHT22;18899;50.748;7.102;2023-04-05T07:36:17;16.50;51.00
32446;DHT22;18899;50.748;7.102;2023-04-05T07:38:43;16.20;51.80
32446;DHT22;18899;50.748;7.102;2023-04-05T07:41:09;16.60;49.40
32446;DHT22;18899;50.748;7.102;2023-04-05T07:43:35;17.20;48.60
32446;DHT22;18899;50.748;7.102;2023-04-05T07:46:04;18.20;46.00
32446;DHT22;18899;50.748;7.102;2023-04-05T07:48:29;17.80;47.70
32446;DHT22;18899;50.748;7.102;2023-04-05T07:50:56;18.10;46.60
32446;DHT22;18899;50.748;7.102;2023-04-05T07:53:26;18.80;44.50
32446;DHT22;18899;50.748;7.102;2023-04-05T07:55:52;19.20;45.20
32446;DHT22;18899;50.748;7.102;2023-04-05T07:58:17;18.70;44.80
32446;DHT22;18899;50.748;7.102;2023-04-05T08:00:43;18.30;44.10
32446;DHT22;18899;50.748;7.102;2023-04-05T08:03:08;19.10;42.90
32446;DHT22;18899;50.748;7.102;2023-04-05T08:05:34;18.00;45.90
32446;DHT22;18899;50.748;7.102;2023-04-05T08:07:59;18.80;43.20
32446;DHT22;18899;50.748;7.102;2023-04-05T08:10:25;18.90;45.00
32446;DHT22;18899;50.748;7.102;2023-04-05T08:12:51;19.10;43.80
32446;DHT22;18899;50.748;7.102;2023-04-05T08:15:17;19.90;40.70
32446;DHT22;18899;50.748;7.102;2023-04-05T08:17:42;19.60;42.50
32446;DHT22;18899;50.748;7.102;2023-04-05T08:20:08;19.60;43.20
32446;DHT22;18899;50.748;7.102;2023-04-05T08:22:34;20.20;41.30
32446;DHT22;18899;50.748;7.102;2023-04-05T08:25:00;19.50;42.40
32446;DHT22;18899;50.748;7.102;2023-04-05T08:27:25;19.60;42.60
32446;DHT22;18899;50.748;7.102;2023-04-05T08:29:51;19.40;42.20
32446;DHT22;18899;50.748;7.102;2023-04-05T08:32:16;20.80;39.70
32446;DHT22;18899;50.748;7.102;2023-04-05T08:34:42;21.80;36.50
32446;DHT22;18899;50.748;7.102;2023-04-05T08:37:07;21.80;37.10
32446;DHT22;18899;50.748;7.102;2023-04-05T08:39:36;21.90;36.40
32446;DHT22;18899;50.748;7.102;2023-04-05T08:42:15;21.00;38.80
32446;DHT22;18899;50.748;7.102;2023-04-05T08:44:43;20.60;38.50
32446;DHT22;18899;50.748;7.102;2023-04-05T08:47:11;20.60;39.30
32446;DHT22;18899;50.748;7.102;2023-04-05T08:49:43;20.60;38.50
32446;DHT22;18899;50.748;7.102;2023-04-05T08:52:09;20.30;40.00
32446;DHT22;18899;50.748;7.102;2023-04-05T08:54:35;20.00;38.60
32446;DHT22;18899;50.748;7.102;2023-04-05T08:57:04;21.00;37.00
32446;DHT22;18899;50.748;7.102;2023-04-05T08:59:31;21.40;39.90
32446;DHT22;18899;50.748;7.102;2023-04-05T09:02:00;20.90;36.20
32446;DHT22;18899;50.748;7.102;2023-04-05T09:04:28;20.90;36.50
32446;DHT22;18899;50.748;7.102;2023-04-05T09:06:57;20.80;36.40
32446;DHT22;18899;50.748;7.102;2023-04-05T09:09:23;21.50;35.50
32446;DHT22;18899;50.748;7.102;2023-04-05T09:11:49;21.60;34.60
32446;DHT22;18899;50.748;7.102;2023-04-05T09:14:16;21.80;34.50
32446;DHT22;18899;50.748;7.102;2023-04-05T09:16:42;22.60;35.30
32446;DHT22;18899;50.748;7.102;2023-04-05T09:19:08;21.30;36.60
32446;DHT22;18899;50.748;7.102;2023-04-05T09:22:02;20.70;36.00
32446;DHT22;18899;50.748;7.102;2023-04-05T09:24:37;20.90;37.00
32446;DHT22;18899;50.748;7.102;2023-04-05T09:27:06;22.00;35.70
32446;DHT22;18899;50.748;7.102;2023-04-05T09:29:32;21.60;33.80
32446;DHT22;18899;50.748;7.102;2023-04-05T09:31:59;22.40;32.20
32446;DHT22;18899;50.748;7.102;2023-04-05T09:34:25;22.60;34.40
32446;DHT22;18899;50.748;7.102;2023-04-05T09:36:51;21.30;33.80
32446;DHT22;18899;50.748;7.102;2023-04-05T09:39:17;20.60;34.50
32446;DHT22;18899;50.748;7.102;2023-04-05T09:42:08;21.50;34.20
32446;DHT22;18899;50.748;7.102;2023-04-05T09:44:56;21.80;33.30
32446;DHT22;18899;50.748;7.102;2023-04-05T09:47:27;20.60;34.80
32446;DHT22;18899;50.748;7.102;2023-04-05T09:49:57;20.40;35.20
32446;DHT22;18899;50.748;7.102;2023-04-05T09:52:31;19.80;37.10
32446;DHT22;18899;50.748;7.102;2023-04-05T09:54:58;20.80;34.00
32446;DHT22;18899;50.748;7.102;2023-04-05T09:57:25;20.60;34.50
32446;DHT22;18899;50.748;7.102;2023-04-05T09:59:52;21.20;32.80
32446;DHT22;18899;50.748;7.102;2023-04-05T10:02:17;20.70;35.50
32446;DHT22;18899;50.748;7.102;2023-04-05T10:04:45;20.40;37.20
32446;DHT22;18899;50.748;7.102;2023-04-05T10:07:12;21.00;34.70
32446;DHT22;18899;50.748;7.102;2023-04-05T10:09:43;21.50;34.40
32446;DHT22;18899;50.748;7.102;2023-04-05T10:12:12;22.40;31.20
32446;DHT22;18899;50.748;7.102;2023-04-05T10:14:38;23.00;31.30
32446;DHT22;18899;50.748;7.102;2023-04-05T10:17:12;22.40;32.80
32446;DHT22;18899;50.748;7.102;2023-04-05T10:25:44;22.20;31.10
32446;DHT22;18899;50.748;7.102;2023-04-05T10:30:45;21.20;32.80
32446;DHT22;18899;50.748;7.102;2023-04-05T10:33:20;20.50;34.30
32446;DHT22;18899;50.748;7.102;2023-04-05T10:36:06;20.50;35.30
32446;DHT22;18899;50.748;7.102;2023-04-05T10:41:47;18.80;37.20
32446;DHT22;18899;50.748;7.102;2023-04-05T10:44:14;17.80;37.10
32446;DHT22;18899;50.748;7.102;2023-04-05T10:46:40;16.60;38.80
32446;DHT22;18899;50.748;7.102;2023-04-05T10:49:15;15.20;42.20
32446;DHT22;18899;50.748;7.102;2023-04-05T10:51:45;13.90;44.00
32446;DHT22;18899;50.748;7.102;2023-04-05T10:54:12;13.60;47.20
32446;DHT22;18899;50.748;7.102;2023-04-05T10:56:38;13.30;45.50
32446;DHT22;18899;50.748;7.102;2023-04-05T10:59:05;12.80;48.20
32446;DHT22;18899;50.748;7.102;2023-04-05T11:01:31;12.70;47.20
32446;DHT22;18899;50.748;7.102;2023-04-05T11:04:13;12.60;48.10
32446;DHT22;18899;50.748;7.102;2023-04-05T11:06:38;12.60;48.40
32446;DHT22;18899;50.748;7.102;2023-04-05T11:11:46;12.00;53.40
32446;DHT22;18899;50.748;7.102;2023-04-05T11:14:20;12.00;51.00
32446;DHT22;18899;50.748;7.102;2023-04-05T11:16:49;11.70;55.30
32446;DHT22;18899;50.748;7.102;2023-04-05T11:22:04;11.70;52.30
32446;DHT22;18899;50.748;7.102;2023-04-05T11:24:49;11.90;53.50
32446;DHT22;18899;50.748;7.102;2023-04-05T11:27:16;12.00;55.20
32446;DHT22;18899;50.748;7.102;2023-04-05T11:29:45;12.00;49.60
32446;DHT22;18899;50.748;7.102;2023-04-05T11:32:12;12.00;52.80
32446;DHT22;18899;50.748;7.102;2023-04-05T11:34:41;12.10;49.60
32446;DHT22;18899;50.748;7.102;2023-04-05T11:37:07;12.20;49.50
32446;DHT22;18899;50.748;7.102;2023-04-05T11:39:32;12.40;49.60
32446;DHT22;18899;50.748;7.102;2023-04-05T11:42:00;12.50;48.80
32446;DHT22;18899;50.748;7.102;2023-04-05T11:44:27;12.40;49.70
32446;DHT22;18899;50.748;7.102;2023-04-05T11:46:53;12.40;48.30
32446;DHT22;18899;50.748;7.102;2023-04-05T11:49:23;12.40;47.40
32446;DHT22;18899;50.748;7.102;2023-04-05T11:51:51;12.40;48.60
32446;DHT22;18899;50.748;7.102;2023-04-05T11:54:30;12.20;51.50
32446;DHT22;18899;50.748;7.102;2023-04-05T11:56:56;12.10;49.60
32446;DHT22;18899;50.748;7.102;2023-04-05T11:59:29;11.80;50.80
32446;DHT22;18899;50.748;7.102;2023-04-05T12:01:58;11.60;52.10
32446;DHT22;18899;50.748;7.102;2023-04-05T12:04:24;11.50;50.50
32446;DHT22;18899;50.748;7.102;2023-04-05T12:07:16;11.60;52.00
32446;DHT22;18899;50.748;7.102;2023-04-05T12:12:31;11.60;55.60
32446;DHT22;18899;50.748;7.102;2023-04-05T12:14:58;11.60;53.00
32446;DHT22;18899;50.748;7.102;2023-04-05T12:17:44;11.70;51.80
32446;DHT22;18899;50.748;7.102;2023-04-05T12:20:11;11.70;50.40
32446;DHT22;18899;50.748;7.102;2023-04-05T12:22:38;11.60;53.20
32446;DHT22;18899;50.748;7.102;2023-04-05T12:25:05;11.60;50.40
32446;DHT22;18899;50.748;7.102;2023-04-05T12:27:30;11.80;51.40
32446;DHT22;18899;50.748;7.102;2023-04-05T12:30:13;11.70;52.80
32446;DHT22;18899;50.748;7.102;2023-04-05T12:32:46;11.70;51.40
32446;DHT22;18899;50.748;7.102;2023-04-05T12:37:42;11.80;56.10
32446;DHT22;18899;50.748;7.102;2023-04-05T12:40:08;11.60;52.70
32446;DHT22;18899;50.748;7.102;2023-04-05T12:42:36;11.60;50.70
32446;DHT22;18899;50.748;7.102;2023-04-05T12:45:03;11.60;51.40
32446;DHT22;18899;50.748;7.102;2023-04-05T12:47:31;11.50;52.60
32446;DHT22;18899;50.748;7.102;2023-04-05T12:49:57;11.50;52.90
32446;DHT22;18899;50.748;7.102;2023-04-05T12:52:25;11.60;51.40
32446;DHT22;18899;50.748;7.102;2023-04-05T12:54:54;11.60;51.50
32446;DHT22;18899;50.748;7.102;2023-04-05T12:57:32;11.70;52.10
32446;DHT22;18899;50.748;7.102;2023-04-05T12:59:58;11.70;51.30
32446;DHT22;18899;50.748;7.102;2023-04-05T13:02:24;11.60;52.30
32446;DHT22;18899;50.748;7.102;2023-04-05T13:04:49;11.60;53.60
32446;DHT22;18899;50.748;7.102;2023-04-05T13:07:15;11.70;49.60
32446;DHT22;18899;50.748;7.102;2023-04-05T13:09:40;11.80;48.70
32446;DHT22;18899;50.748;7.102;2023-04-05T13:12:06;11.70;51.20
32446;DHT22;18899;50.748;7.102;2023-04-05T13:14:31;11.80;49.90
32446;DHT22;18899;50.748;7.102;2023-04-05T13:16:57;11.90;52.20
32446;DHT22;18899;50.748;7.102;2023-04-05T13:19:22;11.90;51.30
32446;DHT22;18899;50.748;7.102;2023-04-05T13:21:48;11.80;51.40
32446;DHT22;18899;50.748;7.102;2023-04-05T13:24:14;11.70;53.00
32446;DHT22;18899;50.748;7.102;2023-04-05T13:26:39;11.80;53.50
32446;DHT22;18899;50.748;7.102;2023-04-05T13:29:05;11.60;52.60
32446;DHT22;18899;50.748;7.102;2023-04-05T13:31:31;11.50;52.80
32446;DHT22;18899;50.748;7.102;2023-04-05T13:33:57;11.40;54.50
32446;DHT22;18899;50.748;7.102;2023-04-05T13:36:23;11.30;55.50
32446;DHT22;18899;50.748;7.102;2023-04-05T13:38:49;11.60;53.50
32446;DHT22;18899;50.748;7.102;2023-04-05T13:41:14;11.70;52.40
32446;DHT22;18899;50.748;7.102;2023-04-05T13:43:40;11.70;54.00
32446;DHT22;18899;50.748;7.102;2023-04-05T13:46:05;11.70;54.70
32446;DHT22;18899;50.748;7.102;2023-04-05T13:48:31;11.50;55.10
32446;DHT22;18899;50.748;7.102;2023-04-05T13:50:56;11.50;58.30
32446;DHT22;18899;50.748;7.102;2023-04-05T13:53:22;11.50;53.50
32446;DHT22;18899;50.748;7.102;2023-04-05T13:55:47;11.60;53.20
32446;DHT22;18899;50.748;7.102;2023-04-05T13:58:13;11.60;53.50
32446;DHT22;18899;50.748;7.102;2023-04-05T14:00:38;11.40;54.50
32446;DHT22;18899;50.748;7.102;2023-04-05T14:03:04;11.30;56.60
32446;DHT22;18899;50.748;7.102;2023-04-05T14:05:30;11.30;55.50
32446;DHT22;18899;50.748;7.102;2023-04-05T14:07:56;11.30;56.90
32446;DHT22;18899;50.748;7.102;2023-04-05T14:10:21;11.30;54.90
32446;DHT22;18899;50.748;7.102;2023-04-05T14:12:48;11.50;52.90
32446;DHT22;18899;50.748;7.102;2023-04-05T14:15:14;11.60;53.70
32446;DHT22;18899;50.748;7.102;2023-04-05T14:17:39;11.70;52.90
32446;DHT22;18899;50.748;7.102;2023-04-05T14:20:05;11.50;52.40
32446;DHT22;18899;50.748;7.102;2023-04-05T14:22:32;11.60;52.90
32446;DHT22;18899;50.748;7.102;2023-04-05T14:24:57;11.60;51.90
32446;DHT22;18899;50.748;7.102;2023-04-05T14:27:23;11.60;52.80
32446;DHT22;18899;50.748;7.102;2023-04-05T14:29:52;11.60;52.30
32446;DHT22;18899;50.748;7.102;2023-04-05T14:32:21;11.70;52.10
32446;DHT22;18899;50.748;7.102;2023-04-05T14:34:47;11.80;53.30
32446;DHT22;18899;50.748;7.102;2023-04-05T14:37:12;11.80;51.50
32446;DHT22;18899;50.748;7.102;2023-04-05T14:39:38;11.80;52.40
32446;DHT22;18899;50.748;7.102;2023-04-05T14:42:04;11.80;52.90
32446;DHT22;18899;50.748;7.102;2023-04-05T14:44:29;11.80;53.70
32446;DHT22;18899;50.748;7.102;2023-04-05T14:46:55;11.80;53.00
32446;DHT22;18899;50.748;7.102;2023-04-05T14:49:20;11.80;51.10
32446;DHT22;18899;50.748;7.102;2023-04-05T14:51:46;11.90;49.00
32446;DHT22;18899;50.748;7.102;2023-04-05T14:54:12;11.80;50.00
32446;DHT22;18899;50.748;7.102;2023-04-05T14:56:37;11.70;50.10
32446;DHT22;18899;50.748;7.102;2023-04-05T14:59:03;11.60;49.50
32446;DHT22;18899;50.748;7.102;2023-04-05T15:01:28;11.60;50.70
32446;DHT22;18899;50.748;7.102;2023-04-05T15:03:54;11.60;51.00
32446;DHT22;18899;50.748;7.102;2023-04-05T15:06:20;11.50;50.00
32446;DHT22;18899;50.748;7.102;2023-04-05T15:08:45;11.40;52.60
32446;DHT22;18899;50.748;7.102;2023-04-05T15:11:11;11.50;52.80
32446;DHT22;18899;50.748;7.102;2023-04-05T15:13:36;11.60;51.00
32446;DHT22;18899;50.748;7.102;2023-04-05T15:16:02;11.70;49.20
32446;DHT22;18899;50.748;7.102;2023-04-05T15:18:28;11.70;50.70
32446;DHT22;18899;50.748;7.102;2023-04-05T15:20:54;11.70;48.60
32446;DHT22;18899;50.748;7.102;2023-04-05T15:23:19;11.70;48.40
32446;DHT22;18899;50.748;7.102;2023-04-05T15:25:45;11.70;50.90
32446;DHT22;18899;50.748;7.102;2023-04-05T15:28:11;11.80;48.40
32446;DHT22;18899;50.748;7.102;2023-04-05T15:30:37;11.60;49.60
32446;DHT22;18899;50.748;7.102;2023-04-05T15:33:02;11.70;49.40
32446;DHT22;18899;50.748;7.102;2023-04-05T15:35:28;11.80;51.00
32446;DHT22;18899;50.748;7.102;2023-04-05T15:37:53;11.90;51.70
32446;DHT22;18899;50.748;7.102;2023-04-05T15:40:19;11.80;51.20
32446;DHT22;18899;50.748;7.102;2023-04-05T15:42:45;11.80;52.30
32446;DHT22;18899;50.748;7.102;2023-04-05T15:45:11;11.70;50.80
32446;DHT22;18899;50.748;7.102;2023-04-05T15:47:37;11.60;49.90
32446;DHT22;18899;50.748;7.102;2023-04-05T15:50:03;11.50;49.80
32446;DHT22;18899;50.748;7.102;2023-04-05T15:52:28;11.70;52.60
32446;DHT22;18899;50.748;7.102;2023-04-05T15:54:54;11.80;51.10
32446;DHT22;18899;50.748;7.102;2023-04-05T15:57:20;11.70;50.70
32446;DHT22;18899;50.748;7.102;2023-04-05T15:59:45;11.80;52.90
32446;DHT22;18899;50.748;7.102;2023-04-05T16:02:11;11.70;53.00
32446;DHT22;18899;50.748;7.102;2023-04-05T16:04:36;11.80;53.70
32446;DHT22;18899;50.748;7.102;2023-04-05T16:07:03;11.80;55.20
32446;DHT22;18899;50.748;7.102;2023-04-05T16:09:29;11.70;52.80
32446;DHT22;18899;50.748;7.102;2023-04-05T16:11:54;11.60;53.40